createdAt,value
2019-02-25T00:01:25.488Z,5.72
2019-02-25T00:03:53.436Z,5.73
2019-02-25T00:06:21.540Z,5.73
2019-02-25T00:08:49.465Z,5.71
2019-02-25T00:11:17.973Z,5.71
2019-02-25T00:13:46.525Z,5.72
2019-02-25T00:16:14.363Z,5.72
2019-02-25T00:18:42.196Z,5.67
2019-02-25T00:21:10.026Z,5.67
2019-02-25T00:23:37.771Z,5.63
2019-02-25T00:26:11.256Z,5.61
2019-02-25T00:28:39.004Z,5.56
2019-02-25T00:31:06.916Z,5.56
2019-02-25T00:33:34.758Z,5.56
2019-02-25T00:36:02.687Z,5.55
2019-02-25T00:38:31.269Z,5.58
2019-02-25T00:40:59.172Z,5.54
2019-02-25T00:43:26.953Z,5.58
2019-02-25T00:45:54.760Z,5.59
2019-02-25T00:48:22.522Z,5.45
2019-02-25T00:50:50.327Z,5.52
2019-02-25T00:53:19.059Z,5.56
2019-02-25T00:55:47.602Z,5.53
2019-02-25T00:58:15.502Z,5.57
2019-02-25T01:00:43.479Z,5.56
2019-02-25T01:03:11.431Z,5.55
2019-02-25T01:05:39.478Z,5.57
2019-02-25T01:08:07.909Z,5.56
2019-02-25T01:10:35.941Z,5.57
2019-02-25T01:13:03.962Z,5.52
2019-02-25T01:15:31.842Z,5.52
2019-02-25T01:18:00.105Z,5.52
2019-02-25T01:20:27.921Z,5.52
2019-02-25T01:22:55.833Z,5.53
2019-02-25T01:25:23.705Z,5.54
2019-02-25T01:27:51.608Z,5.49
2019-02-25T01:30:20.593Z,5.48
2019-02-25T01:32:48.428Z,5.46
2019-02-25T01:35:16.370Z,5.45
2019-02-25T01:37:44.371Z,5.45
2019-02-25T01:40:12.473Z,5.42
2019-02-25T01:42:40.301Z,5.43
2019-02-25T01:45:10.212Z,5.46
2019-02-25T01:47:38.351Z,5.43
2019-02-25T01:50:06.742Z,5.38
2019-02-25T01:52:34.553Z,5.42
2019-02-25T01:55:02.411Z,5.42
2019-02-25T01:57:30.239Z,5.40
2019-02-25T01:59:59.287Z,5.37
2019-02-25T02:02:27.089Z,5.40
2019-02-25T02:04:54.855Z,5.37
2019-02-25T02:07:22.934Z,5.38
2019-02-25T02:09:50.993Z,5.38
2019-02-25T02:12:18.807Z,5.30
2019-02-25T02:14:46.571Z,5.40
2019-02-25T02:17:14.366Z,5.32
2019-02-25T02:19:42.215Z,5.30
2019-02-25T02:22:10.017Z,5.34
2019-02-25T02:24:37.758Z,5.39
2019-02-25T02:27:05.592Z,5.38
2019-02-25T02:29:33.355Z,5.35
2019-02-25T02:32:01.281Z,5.36
2019-02-25T02:34:29.041Z,5.34
2019-02-25T02:36:56.885Z,5.32
2019-02-25T02:39:24.725Z,5.32
2019-02-25T02:42:21.190Z,5.31
2019-02-25T02:44:51.882Z,5.33
2019-02-25T02:47:45.398Z,5.26
2019-02-25T02:50:16.687Z,5.24
2019-02-25T02:52:44.442Z,5.23
2019-02-25T02:55:12.340Z,5.08
2019-02-25T02:57:40.214Z,5.12
2019-02-25T03:00:11.390Z,5.12
2019-02-25T03:02:39.134Z,5.17
2019-02-25T03:05:09.264Z,5.18
2019-02-25T03:07:37.842Z,5.19
2019-02-25T03:10:06.915Z,5.17
2019-02-25T03:12:34.763Z,5.17
2019-02-25T03:15:02.664Z,5.14
2019-02-25T03:17:30.413Z,5.17
2019-02-25T03:19:58.373Z,5.13
2019-02-25T03:22:26.405Z,5.16
2019-02-25T03:24:54.331Z,5.18
2019-02-25T03:27:22.182Z,5.18
2019-02-25T03:29:49.984Z,5.18
2019-02-25T03:32:17.872Z,5.12
2019-02-25T03:34:45.693Z,5.17
2019-02-25T03:37:13.458Z,5.14
2019-02-25T03:39:41.257Z,5.13
2019-02-25T03:42:09.119Z,5.15
2019-02-25T03:44:37.005Z,5.13
2019-02-25T03:47:04.755Z,5.10
2019-02-25T03:49:32.576Z,5.09
2019-02-25T03:52:00.346Z,5.06
2019-02-25T03:54:28.240Z,5.07
2019-02-25T03:56:56.201Z,5.07
2019-02-25T03:59:24.143Z,5.05
2019-02-25T04:01:52.824Z,5.03
2019-02-25T04:04:27.143Z,5.02
2019-02-25T04:06:55.378Z,5.01
2019-02-25T04:09:23.305Z,4.97
2019-02-25T04:11:51.142Z,4.96
2019-02-25T04:14:20.650Z,4.94
2019-02-25T04:16:48.493Z,4.93
2019-02-25T04:19:16.430Z,4.96
2019-02-25T04:21:44.264Z,4.92
2019-02-25T04:24:12.203Z,4.92
2019-02-25T04:26:39.981Z,4.93
2019-02-25T04:29:07.907Z,4.91
2019-02-25T04:31:35.650Z,4.91
2019-02-25T04:34:03.580Z,4.97
2019-02-25T04:36:31.454Z,4.89
2019-02-25T04:38:59.215Z,4.89
2019-02-25T04:41:27.046Z,4.92
2019-02-25T04:43:56.032Z,4.93
2019-02-25T04:46:24.815Z,4.91
2019-02-25T04:48:52.571Z,4.95
2019-02-25T04:51:20.396Z,4.93
2019-02-25T04:53:48.171Z,4.94
2019-02-25T04:56:15.965Z,4.90
2019-02-25T04:58:44.541Z,4.90
2019-02-25T05:01:14.521Z,4.91
2019-02-25T05:03:42.291Z,4.89
2019-02-25T05:06:14.375Z,4.87
2019-02-25T05:08:42.304Z,4.91
2019-02-25T05:11:10.202Z,4.90
2019-02-25T05:13:37.945Z,4.92
2019-02-25T05:16:05.946Z,4.98
2019-02-25T05:18:33.794Z,4.98
2019-02-25T05:21:01.627Z,4.98
2019-02-25T05:23:29.605Z,4.95
2019-02-25T05:25:57.413Z,4.97
2019-02-25T05:28:25.189Z,4.97
2019-02-25T05:30:53.326Z,4.99
2019-02-25T05:33:21.086Z,4.97
2019-02-25T05:35:48.977Z,4.93
2019-02-25T05:38:16.735Z,4.94
2019-02-25T05:40:44.670Z,4.92
2019-02-25T05:43:12.433Z,4.90
2019-02-25T05:45:40.342Z,4.90
2019-02-25T05:48:08.188Z,4.86
2019-02-25T05:50:36.035Z,4.84
2019-02-25T05:53:04.000Z,4.83
2019-02-25T05:55:31.913Z,4.81
2019-02-25T05:58:00.183Z,4.80
2019-02-25T06:00:29.260Z,4.80
2019-02-25T06:02:57.104Z,4.78
2019-02-25T06:05:25.331Z,4.75
2019-02-25T06:07:53.276Z,4.75
2019-02-25T06:10:21.280Z,4.76
2019-02-25T06:12:49.307Z,4.75
2019-02-25T06:15:17.331Z,4.78
2019-02-25T06:17:45.199Z,4.80
2019-02-25T06:20:13.425Z,4.83
2019-02-25T06:22:41.263Z,4.83
2019-02-25T06:25:09.922Z,4.81
2019-02-25T06:27:37.801Z,4.82
2019-02-25T06:30:06.870Z,4.81
2019-02-25T06:32:34.959Z,4.82
2019-02-25T06:35:04.053Z,4.85
2019-02-25T06:37:32.158Z,4.87
2019-02-25T06:40:01.076Z,4.90
2019-02-25T06:42:28.975Z,4.89
2019-02-25T06:44:56.710Z,4.91
2019-02-25T06:47:24.534Z,4.92
2019-02-25T06:49:52.311Z,4.95
2019-02-25T06:52:20.219Z,5.01
2019-02-25T06:54:48.111Z,5.05
2019-02-25T06:57:16.079Z,5.08
2019-02-25T06:59:44.765Z,5.13
2019-02-25T07:02:12.570Z,5.22
2019-02-25T07:04:57.756Z,5.31
2019-02-25T07:07:59.986Z,5.39
2019-02-25T07:10:47.532Z,5.49
2019-02-25T07:13:35.020Z,5.55
2019-02-25T07:16:31.646Z,5.63
2019-02-25T07:19:17.513Z,5.72
2019-02-25T07:22:10.668Z,5.80
2019-02-25T07:24:57.871Z,5.87
2019-02-25T07:27:43.787Z,5.93
2019-02-25T07:30:37.117Z,6.02
2019-02-25T07:33:29.156Z,6.06
2019-02-25T07:36:09.614Z,6.12
2019-02-25T07:38:55.996Z,6.21
2019-02-25T07:41:59.008Z,6.32
2019-02-25T07:44:45.050Z,6.41
2019-02-25T07:47:20.230Z,6.54
2019-02-25T07:50:09.720Z,6.67
2019-02-25T07:52:45.581Z,6.67
2019-02-25T07:55:36.587Z,6.69
2019-02-25T07:58:29.748Z,6.69
2019-02-25T08:01:08.586Z,6.69
2019-02-25T08:03:42.945Z,6.69
2019-02-25T08:06:28.854Z,6.76
2019-02-25T08:09:17.884Z,6.79
2019-02-25T08:12:08.204Z,6.81
2019-02-25T08:14:58.882Z,6.79
2019-02-25T08:17:44.590Z,6.83
2019-02-25T08:20:27.364Z,6.96
2019-02-25T08:23:26.863Z,7.09
2019-02-25T08:26:19.749Z,7.23
2019-02-25T08:29:22.478Z,7.29
2019-02-25T08:32:22.094Z,7.25
2019-02-25T08:35:04.968Z,7.26
2019-02-25T08:38:01.984Z,7.32
2019-02-25T08:41:14.996Z,7.32
2019-02-25T08:44:13.629Z,7.37
2019-02-25T08:47:03.706Z,7.46
2019-02-25T08:49:37.723Z,7.59
2019-02-25T08:52:06.274Z,7.64
2019-02-25T08:54:34.311Z,7.74
2019-02-25T08:57:02.586Z,7.80
2019-02-25T08:59:30.553Z,7.82
2019-02-25T09:01:58.336Z,7.90
2019-02-25T09:04:26.878Z,7.97
2019-02-25T09:06:54.741Z,8.04
2019-02-25T09:09:22.706Z,8.11
2019-02-25T09:11:50.683Z,8.17
2019-02-25T09:14:18.785Z,8.18
2019-02-25T09:16:46.762Z,8.23
2019-02-25T09:19:14.651Z,8.28
2019-02-25T09:21:42.452Z,8.37
2019-02-25T09:24:10.214Z,8.44
2019-02-25T09:26:38.018Z,8.56
2019-02-25T09:29:05.863Z,8.67
2019-02-25T09:31:33.659Z,8.68
2019-02-25T09:34:02.402Z,8.76
2019-02-25T09:36:30.420Z,8.78
2019-02-25T09:38:58.152Z,8.85
2019-02-25T09:41:29.841Z,8.87
2019-02-25T09:43:55.834Z,8.91
2019-02-25T09:46:23.957Z,8.95
2019-02-25T09:48:51.727Z,9.77
2019-02-25T09:51:19.526Z,11.03
2019-02-25T09:53:47.277Z,11.91
2019-02-25T09:56:15.898Z,12.08
2019-02-25T09:58:43.627Z,11.53
2019-02-25T10:01:12.534Z,10.81
2019-02-25T10:03:40.289Z,10.73
2019-02-25T10:06:08.204Z,10.37
2019-02-25T10:08:36.027Z,10.30
2019-02-25T10:11:04.553Z,10.31
2019-02-25T10:13:32.363Z,10.29
2019-02-25T10:16:00.145Z,10.21
2019-02-25T10:18:27.887Z,10.24
2019-02-25T10:20:55.667Z,10.22
2019-02-25T10:23:24.239Z,10.18
2019-02-25T10:25:52.150Z,10.27
2019-02-25T10:28:19.884Z,10.37
2019-02-25T10:30:52.715Z,10.44
2019-02-25T10:33:17.497Z,10.53
2019-02-25T10:35:45.267Z,10.59
2019-02-25T10:38:13.033Z,10.66
2019-02-25T10:40:40.861Z,10.70
2019-02-25T10:43:08.631Z,10.75
2019-02-25T10:45:38.899Z,10.76
2019-02-25T10:48:09.128Z,10.77
2019-02-25T10:50:38.681Z,10.80
2019-02-25T10:53:07.673Z,10.78
2019-02-25T10:55:40.068Z,10.76
2019-02-25T10:58:09.329Z,10.78
2019-02-25T11:00:39.433Z,10.78
2019-02-25T11:03:07.270Z,10.74
2019-02-25T11:05:35.250Z,10.74
2019-02-25T11:08:07.478Z,10.80
2019-02-25T11:10:39.927Z,10.88
2019-02-25T11:13:08.646Z,10.96
2019-02-25T11:15:38.033Z,11.13
2019-02-25T11:18:07.589Z,11.38
2019-02-25T11:20:37.665Z,11.57
2019-02-25T11:23:05.438Z,11.82
2019-02-25T11:25:33.284Z,11.99
2019-02-25T11:28:03.270Z,12.13
2019-02-25T11:30:31.813Z,12.31
2019-02-25T11:33:00.505Z,12.47
2019-02-25T11:35:28.254Z,12.60
2019-02-25T11:37:58.533Z,12.68
2019-02-25T11:40:28.219Z,12.73
2019-02-25T11:42:55.831Z,12.86
2019-02-25T11:45:23.899Z,13.05
2019-02-25T11:47:51.797Z,13.20
2019-02-25T11:50:23.378Z,13.39
2019-02-25T11:52:51.368Z,13.60
2019-02-25T11:55:19.301Z,13.83
2019-02-25T11:57:47.123Z,13.95
2019-02-25T12:00:16.709Z,14.07
2019-02-25T12:02:44.912Z,14.19
2019-02-25T12:05:13.676Z,14.31
2019-02-25T12:07:42.370Z,14.38
2019-02-25T12:10:10.524Z,14.33
2019-02-25T12:12:38.304Z,14.33
2019-02-25T12:15:06.702Z,14.27
2019-02-25T12:17:34.617Z,14.57
2019-02-25T12:20:02.681Z,14.57
2019-02-25T12:22:30.498Z,14.52
2019-02-25T12:24:58.355Z,14.79
2019-02-25T12:27:26.137Z,14.79
2019-02-25T12:29:53.910Z,14.52
2019-02-25T12:32:21.692Z,14.52
2019-02-25T12:34:49.570Z,14.39
2019-02-25T12:37:17.592Z,14.39
2019-02-25T12:39:47.124Z,14.18
2019-02-25T12:42:15.021Z,14.18
2019-02-25T12:44:43.789Z,13.96
2019-02-25T12:47:11.692Z,14.41
2019-02-25T12:49:39.448Z,14.66
2019-02-25T12:52:10.111Z,14.66
2019-02-25T12:54:38.127Z,14.91
2019-02-25T12:57:06.098Z,15.07
2019-02-25T12:59:33.897Z,15.20
2019-02-25T13:02:01.632Z,15.20
2019-02-25T13:04:29.562Z,15.25
2019-02-25T13:06:57.306Z,15.25
2019-02-25T13:09:25.524Z,15.16
2019-02-25T13:11:53.878Z,15.09
2019-02-25T13:14:21.661Z,15.11
2019-02-25T13:16:49.473Z,15.38
2019-02-25T13:19:18.267Z,15.32
2019-02-25T13:21:45.996Z,15.32
2019-02-25T13:24:13.809Z,15.27
2019-02-25T13:26:41.562Z,15.06
2019-02-25T13:29:09.379Z,14.80
2019-02-25T13:31:37.129Z,15.07
2019-02-25T13:34:05.125Z,15.11
2019-02-25T13:36:32.876Z,15.30
2019-02-25T13:39:00.665Z,15.30
2019-02-25T13:41:28.522Z,15.38
2019-02-25T13:43:56.763Z,15.44
2019-02-25T13:46:24.525Z,15.40
2019-02-25T13:48:52.418Z,15.71
2019-02-25T13:51:20.278Z,16.04
2019-02-25T13:53:49.943Z,16.13
2019-02-25T13:56:17.790Z,16.01
2019-02-25T13:58:45.716Z,16.00
2019-02-25T14:01:15.320Z,16.04
2019-02-25T14:03:43.140Z,16.04
2019-02-25T14:06:11.682Z,16.09
2019-02-25T14:08:39.474Z,16.06
2019-02-25T14:11:07.387Z,15.54
2019-02-25T14:13:35.209Z,15.32
2019-02-25T14:16:03.343Z,15.68
2019-02-25T14:18:32.059Z,15.68
2019-02-25T14:21:00.292Z,15.71
2019-02-25T14:23:28.216Z,15.87
2019-02-25T14:25:58.802Z,15.96
2019-02-25T14:28:26.364Z,15.95
2019-02-25T14:30:54.237Z,15.89
2019-02-25T14:33:23.525Z,15.89
2019-02-25T14:35:53.091Z,15.82
2019-02-25T14:38:23.227Z,15.70
2019-02-25T14:40:51.932Z,15.27
2019-02-25T14:43:22.691Z,15.39
2019-02-25T14:45:53.933Z,15.24
2019-02-25T14:48:22.858Z,15.49
2019-02-25T14:50:50.687Z,15.63
2019-02-25T14:53:19.305Z,15.68
2019-02-25T14:55:49.556Z,15.91
2019-02-25T14:58:17.547Z,15.91
2019-02-25T15:00:45.837Z,15.97
2019-02-25T15:03:13.848Z,15.99
2019-02-25T15:05:42.169Z,16.03
2019-02-25T15:08:10.213Z,15.94
2019-02-25T15:10:40.782Z,15.94
2019-02-25T15:13:10.829Z,15.78
2019-02-25T15:15:40.864Z,15.96
2019-02-25T15:18:09.317Z,16.11
2019-02-25T15:20:37.133Z,16.18
2019-02-25T15:23:07.368Z,16.16
2019-02-25T15:25:37.237Z,16.22
2019-02-25T15:28:07.375Z,16.17
2019-02-25T15:30:35.302Z,16.13
2019-02-25T15:33:03.139Z,16.03
2019-02-25T15:35:34.137Z,15.97
2019-02-25T15:38:01.119Z,15.96
2019-02-25T15:40:29.937Z,15.82
2019-02-25T15:43:02.746Z,15.83
2019-02-25T15:45:32.907Z,15.86
2019-02-25T15:48:02.117Z,15.96
2019-02-25T15:50:30.335Z,16.06
2019-02-25T15:53:02.540Z,16.16
2019-02-25T15:55:28.888Z,16.11
2019-02-25T15:57:56.865Z,16.06
2019-02-25T16:00:27.701Z,15.97
2019-02-25T16:02:56.726Z,15.79
2019-02-25T16:05:27.392Z,15.71
2019-02-25T16:07:58.012Z,15.71
2019-02-25T16:10:27.202Z,15.55
2019-02-25T16:12:57.653Z,15.47
2019-02-25T16:15:25.670Z,15.43
2019-02-25T16:17:54.113Z,15.42
2019-02-25T16:20:22.012Z,15.31
2019-02-25T16:22:50.140Z,15.27
2019-02-25T16:25:18.267Z,15.26
2019-02-25T16:27:49.887Z,15.14
2019-02-25T16:30:30.519Z,15.14
2019-02-25T16:32:56.867Z,15.09
2019-02-25T16:35:24.847Z,14.97
2019-02-25T16:37:55.323Z,14.51
2019-02-25T16:40:26.448Z,14.26
2019-02-25T16:42:54.903Z,13.95
2019-02-25T16:45:22.765Z,13.65
2019-02-25T16:47:50.643Z,13.36
2019-02-25T16:50:20.947Z,13.30
2019-02-25T16:52:49.588Z,13.00
2019-02-25T16:55:19.970Z,13.00
2019-02-25T16:57:47.912Z,13.07
2019-02-25T17:00:16.733Z,13.02
2019-02-25T17:02:44.913Z,12.91
2019-02-25T17:05:19.670Z,12.90
2019-02-25T17:07:48.997Z,12.79
2019-02-25T17:10:17.104Z,12.75
2019-02-25T17:12:45.739Z,12.67
2019-02-25T17:15:15.928Z,12.54
2019-02-25T17:17:43.902Z,12.37
2019-02-25T17:20:13.372Z,12.33
2019-02-25T17:22:42.159Z,12.28
2019-02-25T17:25:12.129Z,12.28
2019-02-25T17:27:41.198Z,12.09
2019-02-25T17:30:13.500Z,12.09
2019-02-25T17:32:48.399Z,11.85
2019-02-25T17:35:18.799Z,11.85
2019-02-25T17:37:46.813Z,11.72
2019-02-25T17:40:15.083Z,11.77
2019-02-25T17:42:44.810Z,11.63
2019-02-25T17:45:15.053Z,11.63
2019-02-25T17:47:43.761Z,11.60
2019-02-25T17:50:14.048Z,11.69
2019-02-25T17:52:45.168Z,11.75
2019-02-25T17:55:15.420Z,11.69
2019-02-25T17:57:43.424Z,11.69
2019-02-25T18:00:15.444Z,11.66
2019-02-25T18:02:44.873Z,11.43
2019-02-25T18:05:14.268Z,11.34
2019-02-25T18:07:44.296Z,11.34
2019-02-25T18:10:13.085Z,11.34
2019-02-25T18:12:41.506Z,11.28
2019-02-25T18:15:14.292Z,11.33
2019-02-25T18:17:43.183Z,11.30
2019-02-25T18:20:12.368Z,11.10
2019-02-25T18:22:40.216Z,11.05
2019-02-25T18:25:08.535Z,11.13
2019-02-25T18:27:37.378Z,11.13
2019-02-25T18:30:06.884Z,11.14
2019-02-25T18:32:36.966Z,10.96
2019-02-25T18:35:06.771Z,11.07
2019-02-25T18:37:35.489Z,11.04
2019-02-25T18:40:04.944Z,11.01
2019-02-25T18:42:34.873Z,11.01
2019-02-25T18:45:02.943Z,10.92
2019-02-25T18:47:30.931Z,10.92
2019-02-25T18:50:00.797Z,10.91
2019-02-25T18:52:29.673Z,10.86
2019-02-25T18:54:59.873Z,10.79
2019-02-25T18:57:29.454Z,10.87
2019-02-25T18:59:59.265Z,10.82
2019-02-25T19:02:27.418Z,10.67
2019-02-25T19:04:55.467Z,10.81
2019-02-25T19:07:25.134Z,10.82
2019-02-25T19:09:53.871Z,10.82
2019-02-25T19:12:23.078Z,10.74
2019-02-25T19:14:53.339Z,10.75
2019-02-25T19:17:21.559Z,10.63
2019-02-25T19:19:51.638Z,10.59
2019-02-25T19:22:21.533Z,10.58
2019-02-25T19:24:50.858Z,10.49
2019-02-25T19:27:18.898Z,10.49
2019-02-25T19:29:49.077Z,10.46
2019-02-25T19:32:16.850Z,10.52
2019-02-25T19:34:44.846Z,10.53
2019-02-25T19:37:15.805Z,10.46
2019-02-25T19:39:46.226Z,10.51
2019-02-25T19:42:15.451Z,10.36
2019-02-25T19:44:44.130Z,10.37
2019-02-25T19:47:14.054Z,10.43
2019-02-25T19:49:43.481Z,10.42
2019-02-25T19:52:13.866Z,10.40
2019-02-25T19:54:43.350Z,10.35
2019-02-25T19:57:14.058Z,10.27
2019-02-25T19:59:43.359Z,10.30
2019-02-25T20:02:11.085Z,10.30
2019-02-25T20:04:40.056Z,10.25
2019-02-25T20:07:08.617Z,10.10
2019-02-25T20:09:40.140Z,10.02
2019-02-25T20:12:06.445Z,10.01
2019-02-25T20:14:34.242Z,10.02
2019-02-25T20:17:02.743Z,9.89
2019-02-25T20:19:30.877Z,9.91
2019-02-25T20:21:58.896Z,9.99
2019-02-25T20:24:27.312Z,9.97
2019-02-25T20:26:57.849Z,9.89
2019-02-25T20:29:25.011Z,9.86
2019-02-25T20:31:53.627Z,9.82
2019-02-25T20:34:22.908Z,9.70
2019-02-25T20:36:53.063Z,9.72
2019-02-25T20:39:28.760Z,9.72
2019-02-25T20:41:58.614Z,9.59
2019-02-25T20:44:28.339Z,9.54
2019-02-25T20:46:57.302Z,9.49
2019-02-25T20:49:29.532Z,9.49
2019-02-25T20:51:57.016Z,9.49
2019-02-25T20:54:25.267Z,9.41
2019-02-25T20:56:53.699Z,9.47
2019-02-25T20:59:23.986Z,9.42
2019-02-25T21:01:52.811Z,9.42
2019-02-25T21:04:22.295Z,9.33
2019-02-25T21:06:50.322Z,9.33
2019-02-25T21:09:18.242Z,9.36
2019-02-25T21:11:46.004Z,9.23
2019-02-25T21:14:13.964Z,9.27
2019-02-25T21:16:42.202Z,9.30
2019-02-25T21:19:12.576Z,9.33
2019-02-25T21:21:40.144Z,9.32
2019-02-25T21:24:08.860Z,9.27
2019-02-25T21:26:38.761Z,9.24
2019-02-25T21:29:09.606Z,9.28
2019-02-25T21:31:37.031Z,9.25
2019-02-25T21:34:05.340Z,9.25
2019-02-25T21:36:33.882Z,9.26
2019-02-25T21:39:03.891Z,9.22
2019-02-25T21:41:43.514Z,9.27
2019-02-25T21:44:16.642Z,9.26
2019-02-25T21:46:41.961Z,9.23
2019-02-25T21:49:09.721Z,9.26
2019-02-25T21:51:39.299Z,9.20
2019-02-25T21:54:08.936Z,9.22
2019-02-25T21:56:36.981Z,9.07
2019-02-25T21:59:06.219Z,9.12
2019-02-25T22:01:36.387Z,9.11
2019-02-25T22:04:04.294Z,9.08
2019-02-25T22:06:33.262Z,9.02
2019-02-25T22:09:02.876Z,9.03
2019-02-25T22:11:30.836Z,8.96
2019-02-25T22:13:58.618Z,9.00
2019-02-25T22:16:29.545Z,8.92
2019-02-25T22:18:56.607Z,8.93
2019-02-25T22:21:25.859Z,8.86
2019-02-25T22:23:56.129Z,8.85
2019-02-25T22:26:27.208Z,8.71
2019-02-25T22:28:55.273Z,8.73
2019-02-25T22:31:23.653Z,8.71
2019-02-25T22:33:51.487Z,8.74
2019-02-25T22:36:19.407Z,8.68
2019-02-25T22:38:47.136Z,8.71
2019-02-25T22:41:16.727Z,8.68
2019-02-25T22:43:48.200Z,8.68
2019-02-25T22:46:16.181Z,8.64
2019-02-25T22:48:45.498Z,8.61
2019-02-25T22:51:13.637Z,8.63
2019-02-25T22:53:42.377Z,8.58
2019-02-25T22:56:13.295Z,8.52
2019-02-25T22:58:42.483Z,8.43
2019-02-25T23:01:17.588Z,8.43
2019-02-25T23:03:45.578Z,8.44
2019-02-25T23:06:15.647Z,8.36
2019-02-25T23:08:44.264Z,8.32
2019-02-25T23:11:14.436Z,8.35
2019-02-25T23:13:43.851Z,8.21
2019-02-25T23:16:13.365Z,8.21
2019-02-25T23:18:42.276Z,8.26
2019-02-25T23:21:10.228Z,8.25
2019-02-25T23:23:40.026Z,8.21
2019-02-25T23:26:07.711Z,8.11
2019-02-25T23:28:36.389Z,8.15
2019-02-25T23:31:04.344Z,8.14
2019-02-25T23:33:32.147Z,8.17
2019-02-25T23:35:59.881Z,8.21
2019-02-25T23:38:27.770Z,8.24
2019-02-25T23:40:55.634Z,8.19
2019-02-25T23:43:23.550Z,8.27
2019-02-25T23:46:00.569Z,8.23
2019-02-25T23:48:32.926Z,8.18
2019-02-25T23:50:59.754Z,8.04
2019-02-25T23:53:28.854Z,8.05
2019-02-25T23:55:58.765Z,8.02
2019-02-25T23:58:26.732Z,8.07
